Time;durP1;ratioP1;P1;durP2;ratioP2;P2;SDS_P1;SDS_P2;PMS_P1;PMS_P2;Temp;Humidity;BMP_temperature;BMP_pressure;BME280_temperature;BME280_humidity;BME280_pressure;Samples;Min_cycle;Max_cycle;Signal;HPM_P1;HPM_P2
2021/08/10 00:00:39;;;;;;;;;5.50;4.75;;;;;19.65;64.29;101422.88;5071532;28;45468;-73
2021/08/10 00:03:04;;;;;;;;;5.50;5.50;;;;;19.64;64.41;101421.25;5071071;28;45614;-74
2021/08/10 00:05:30;;;;;;;;;5.00;4.50;;;;;19.64;64.92;101412.38;5072889;27;45428;-74
2021/08/10 00:07:55;;;;;;;;;5.50;4.75;;;;;19.62;65.96;101419.78;5064526;27;45633;-71
2021/08/10 00:10:21;;;;;;;;;8.00;5.00;;;;;19.60;65.79;101432.53;5070282;27;45532;-69
2021/08/10 00:12:46;;;;;;;;;7.50;4.00;;;;;19.59;65.62;101429.03;5071882;27;45651;-74
2021/08/10 00:15:12;;;;;;;;;4.50;3.50;;;;;19.60;65.12;101424.50;5081988;27;45360;-73
2021/08/10 00:17:38;;;;;;;;;4.25;4.00;;;;;19.61;65.58;101426.16;5073295;27;45560;-74
2021/08/10 00:20:05;;;;;;;;;5.25;4.75;;;;;19.58;65.00;101424.69;5069601;27;45663;-74
2021/08/10 00:22:30;;;;;;;;;3.75;3.75;;;;;19.54;65.56;101418.88;5074012;28;45525;-73
2021/08/10 00:24:55;;;;;;;;;5.00;5.00;;;;;19.51;65.42;101413.06;5080042;27;45810;-72
2021/08/10 00:27:21;;;;;;;;;7.00;6.50;;;;;19.46;65.52;101410.97;5063185;27;45571;-74
2021/08/10 00:29:46;;;;;;;;;6.50;4.00;;;;;19.42;65.57;101409.69;5076320;27;45422;-73
2021/08/10 00:32:11;;;;;;;;;7.00;5.25;;;;;19.38;66.12;101403.03;5085727;27;45483;-73
2021/08/10 00:34:37;;;;;;;;;5.50;5.00;;;;;19.37;66.20;101412.13;5080634;27;45576;-75
2021/08/10 00:37:07;;;;;;;;;6.00;5.25;;;;;19.36;66.42;101413.13;5058814;27;48171;-74
2021/08/10 00:39:33;;;;;;;;;5.50;5.00;;;;;19.33;66.13;101421.56;5081187;27;45752;-74
2021/08/10 00:41:59;;;;;;;;;4.50;4.50;;;;;19.33;66.25;101411.66;5069478;27;45694;-69
2021/08/10 00:44:25;;;;;;;;;5.50;4.25;;;;;19.33;66.11;101411.66;5071913;27;45493;-73
2021/08/10 00:46:50;;;;;;;;;7.25;6.25;;;;;19.33;66.16;101405.47;5076643;27;46025;-71
2021/08/10 00:49:16;;;;;;;;;8.25;5.50;;;;;19.32;66.40;101403.81;5076699;27;47824;-71
2021/08/10 00:51:41;;;;;;;;;7.00;6.75;;;;;19.30;65.78;101412.03;5065367;27;45638;-71
2021/08/10 00:54:08;;;;;;;;;6.00;4.00;;;;;19.28;66.02;101418.63;5081036;27;45488;-74
2021/08/10 00:56:34;;;;;;;;;8.75;6.75;;;;;19.28;66.52;101415.94;5081566;27;45541;-73
2021/08/10 00:59:02;;;;;;;;;4.75;4.75;;;;;19.28;66.56;101407.91;5071202;27;45604;-74
2021/08/10 01:01:28;;;;;;;;;8.50;6.00;;;;;19.26;66.89;101416.16;5070162;27;45555;-73
2021/08/10 01:03:53;;;;;;;;;7.50;4.75;;;;;19.26;66.81;101426.00;5077770;27;45500;-72
2021/08/10 01:06:35;;;;;;;;;6.75;5.00;;;;;19.29;67.62;101425.66;5075740;27;46990;-74
2021/08/10 01:09:07;;;;;;;;;4.25;4.00;;;;;19.28;67.81;101432.00;5072108;27;45472;-74
2021/08/10 01:11:55;;;;;;;;;4.00;3.50;;;;;19.26;67.68;101436.72;5076424;27;45470;-74
2021/08/10 01:14:43;;;;;;;;;6.75;5.50;;;;;19.27;68.45;101438.41;5065692;27;45390;-73
2021/08/10 01:17:24;;;;;;;;;4.00;3.50;;;;;19.25;68.39;101445.78;5005907;28;46238;-74
2021/08/10 01:19:49;;;;;;;;;6.75;5.75;;;;;19.24;68.64;101449.50;5025083;28;46336;-72
2021/08/10 01:22:19;;;;;;;;;5.00;5.00;;;;;19.22;69.91;101446.19;5005141;28;45390;-74
2021/08/10 01:25:19;;;;;;;;;7.25;6.00;;;;;19.18;69.71;101451.06;5009141;28;45530;-71
2021/08/10 01:27:58;;;;;;;;;5.00;4.75;;;;;19.15;70.88;101458.66;5004591;28;46422;-74
2021/08/10 01:30:31;;;;;;;;;5.75;5.25;;;;;19.12;71.13;101450.00;5005268;28;45630;-72
2021/08/10 01:32:59;;;;;;;;;6.75;4.75;;;;;19.09;70.86;101445.00;5001792;28;45625;-74
2021/08/10 01:35:27;;;;;;;;;6.75;5.25;;;;;19.07;71.31;101448.91;5005249;28;45687;-72
2021/08/10 01:37:55;;;;;;;;;7.50;5.25;;;;;19.04;71.48;101443.88;5023734;28;48539;-70
2021/08/10 01:40:26;;;;;;;;;6.00;6.00;;;;;19.01;72.09;101445.09;4989172;28;45648;-69
2021/08/10 01:42:54;;;;;;;;;9.25;5.00;;;;;18.96;72.77;101436.78;4988419;28;45498;-74
2021/08/10 01:45:20;;;;;;;;;6.25;5.00;;;;;18.94;73.30;101444.22;5006179;28;45522;-73
2021/08/10 01:47:48;;;;;;;;;8.25;6.25;;;;;18.89;75.71;101441.25;5005025;28;45607;-71
2021/08/10 01:50:14;;;;;;;;;6.75;6.50;;;;;18.83;78.70;101437.47;5004880;28;45999;-73
2021/08/10 01:52:41;;;;;;;;;8.00;7.25;;;;;18.77;79.10;101429.34;5004944;28;45590;-72
2021/08/10 01:55:09;;;;;;;;;7.50;6.00;;;;;18.67;79.25;101435.81;5059388;27;45607;-74
2021/08/10 01:57:35;;;;;;;;;8.25;6.50;;;;;18.63;77.40;101428.31;5066387;27;46156;-71
2021/08/10 02:00:01;;;;;;;;;8.25;8.00;;;;;18.55;79.17;101423.91;5067851;27;45966;-70
2021/08/10 02:02:27;;;;;;;;;8.25;8.00;;;;;18.52;80.94;101434.13;5069828;27;45392;-70
2021/08/10 02:04:53;;;;;;;;;8.50;8.25;;;;;18.47;80.58;101446.25;5071064;27;45441;-74
2021/08/10 02:07:19;;;;;;;;;9.50;6.50;;;;;18.41;80.79;101446.13;5068158;27;46591;-69
2021/08/10 02:09:46;;;;;;;;;6.00;6.00;;;;;18.38;80.96;101438.47;5073164;27;45538;-70
2021/08/10 02:12:13;;;;;;;;;9.00;7.00;;;;;18.35;84.10;101449.56;5074407;27;45509;-73
2021/08/10 02:14:39;;;;;;;;;8.75;6.75;;;;;18.28;81.51;101449.44;5070827;27;45525;-74
2021/08/10 02:17:07;;;;;;;;;5.75;5.50;;;;;18.24;81.61;101448.13;5069466;27;45562;-71
2021/08/10 02:19:34;;;;;;;;;11.75;8.00;;;;;18.20;84.08;101445.00;5068362;28;46659;-70
2021/08/10 02:22:12;;;;;;;;;5.75;5.75;;;;;18.16;83.98;101450.91;5066830;27;45463;-72
2021/08/10 02:24:45;;;;;;;;;6.50;6.50;;;;;18.13;85.02;101451.28;5058632;28;45806;-72
2021/08/10 02:27:19;;;;;;;;;8.50;6.50;;;;;18.09;85.51;101450.78;5069182;27;45749;-69
2021/08/10 02:29:48;;;;;;;;;7.00;5.00;;;;;18.07;83.63;101449.31;5076190;27;45557;-74
2021/08/10 02:32:21;;;;;;;;;8.00;6.75;;;;;18.06;82.88;101453.84;5074675;27;45433;-74
2021/08/10 02:34:46;;;;;;;;;6.00;6.00;;;;;18.05;83.20;101441.47;5067810;27;45451;-74
2021/08/10 02:37:15;;;;;;;;;9.75;7.75;;;;;18.07;83.08;101433.25;5067493;27;45634;-75
2021/08/10 02:39:43;;;;;;;;;8.00;6.25;;;;;18.09;82.84;101431.25;5066192;27;45558;-74
2021/08/10 02:42:10;;;;;;;;;10.75;7.25;;;;;18.08;82.60;101433.09;5077958;27;45613;-71
2021/08/10 02:44:40;;;;;;;;;8.50;8.00;;;;;18.10;82.53;101436.44;5068576;27;45523;-73
2021/08/10 02:47:06;;;;;;;;;7.00;7.00;;;;;18.12;82.61;101444.25;5066488;27;46318;-74
2021/08/10 02:49:32;;;;;;;;;10.00;7.50;;;;;18.15;82.11;101449.22;5069445;27;45446;-71
2021/08/10 02:51:57;;;;;;;;;6.75;6.75;;;;;18.17;82.04;101448.03;5074163;27;45503;-73
2021/08/10 02:54:23;;;;;;;;;9.00;6.50;;;;;18.19;82.67;101440.66;5062263;27;45630;-73
2021/08/10 02:57:33;;;;;;;;;8.50;7.50;;;;;18.18;83.66;101433.66;5078231;27;47264;-72
2021/08/10 03:00:06;;;;;;;;;9.75;8.00;;;;;18.14;84.25;101434.19;5069276;27;45381;-72
2021/08/10 03:02:39;;;;;;;;;10.00;7.25;;;;;18.08;85.55;101433.09;5067117;27;45551;-71
2021/08/10 03:05:32;;;;;;;;;10.25;9.75;;;;;18.07;84.84;101426.06;5067631;27;45460;-69
2021/08/10 03:08:00;;;;;;;;;7.50;7.50;;;;;18.04;86.18;101431.78;5068838;27;45511;-72
2021/08/10 03:10:29;;;;;;;;;12.00;8.25;;;;;17.96;86.46;101426.53;5068903;27;45566;-72
2021/08/10 03:12:58;;;;;;;;;8.25;7.50;;;;;17.92;86.68;101428.72;5074399;27;45462;-72
2021/08/10 03:15:26;;;;;;;;;9.75;9.00;;;;;17.87;88.81;101425.75;5067772;27;45536;-72
2021/08/10 03:17:53;;;;;;;;;10.00;9.25;;;;;17.81;89.38;101429.97;5078714;27;52612;-73
2021/08/10 03:20:21;;;;;;;;;8.00;8.00;;;;;17.81;89.15;101438.00;5084673;27;45380;-72
2021/08/10 03:22:47;;;;;;;;;7.75;7.50;;;;;17.79;89.35;101429.28;5089262;27;45547;-74
2021/08/10 03:25:15;;;;;;;;;9.00;8.00;;;;;17.74;89.11;101433.53;5078252;27;45522;-72
2021/08/10 03:27:41;;;;;;;;;15.00;10.50;;;;;17.70;88.95;101438.38;5071452;27;46286;-74
2021/08/10 03:30:08;;;;;;;;;10.00;7.75;;;;;17.66;89.30;101445.13;5060950;27;45611;-74
2021/08/10 03:32:35;;;;;;;;;9.00;8.00;;;;;17.69;89.35;101436.72;5070987;27;45409;-72
2021/08/10 03:35:03;;;;;;;;;8.75;8.00;;;;;17.67;88.96;101436.06;5073512;27;45508;-74
2021/08/10 03:37:30;;;;;;;;;12.00;9.75;;;;;17.66;89.25;101431.75;5072372;27;46356;-71
2021/08/10 03:39:57;;;;;;;;;11.00;9.00;;;;;17.68;88.98;101429.75;5070166;27;45618;-72
2021/08/10 03:42:24;;;;;;;;;12.50;9.25;;;;;17.65;87.77;101424.72;5071363;27;45903;-74
2021/08/10 03:44:50;;;;;;;;;9.00;7.50;;;;;17.61;87.44;101434.97;5072928;27;45580;-69
2021/08/10 03:47:17;;;;;;;;;11.50;8.00;;;;;17.60;87.35;101427.94;5085845;27;46367;-71
2021/08/10 03:49:45;;;;;;;;;9.00;9.00;;;;;17.58;86.70;101423.78;5077537;27;45498;-71
2021/08/10 03:52:12;;;;;;;;;11.00;8.75;;;;;17.54;86.48;101425.16;5072560;27;45992;-74
2021/08/10 03:54:38;;;;;;;;;9.25;8.75;;;;;17.53;86.04;101426.16;5063457;27;45492;-70
2021/08/10 03:57:06;;;;;;;;;9.50;7.25;;;;;17.50;86.20;101418.50;5064535;27;48102;-74
2021/08/10 03:59:33;;;;;;;;;12.00;8.75;;;;;17.52;85.26;101419.16;5073292;27;45638;-71
2021/08/10 04:01:59;;;;;;;;;11.25;9.00;;;;;17.49;85.93;101423.03;5076201;27;45589;-71
2021/08/10 04:04:26;;;;;;;;;13.25;9.75;;;;;17.52;85.60;101425.31;5070734;27;45451;-69
2021/08/10 04:06:53;;;;;;;;;10.75;9.00;;;;;17.54;84.67;101433.19;5067420;27;46196;-69
2021/08/10 04:09:21;;;;;;;;;12.00;10.50;;;;;17.56;84.57;101436.50;5079470;27;45640;-74
2021/08/10 04:11:47;;;;;;;;;13.00;10.50;;;;;17.57;84.89;101428.28;5070163;27;45532;-74
2021/08/10 04:14:14;;;;;;;;;13.00;10.25;;;;;17.59;83.94;101422.78;5050476;27;45515;-74
2021/08/10 04:16:55;;;;;;;;;9.00;9.00;;;;;17.62;84.92;101422.41;5073817;27;45989;-72
2021/08/10 04:19:23;;;;;;;;;11.50;9.50;;;;;17.65;84.56;101427.41;5077766;27;45631;-75
2021/08/10 04:21:49;;;;;;;;;12.50;11.00;;;;;17.68;84.20;101423.53;5067640;27;45563;-75
2021/08/10 04:24:14;;;;;;;;;14.25;12.25;;;;;17.70;84.20;101427.69;5061122;27;45808;-70
2021/08/10 04:26:40;;;;;;;;;12.75;10.75;;;;;17.72;83.80;101427.53;5080031;27;46436;-74
2021/08/10 04:29:05;;;;;;;;;13.00;12.75;;;;;17.75;83.81;101421.81;5056521;28;45626;-69
2021/08/10 04:31:31;;;;;;;;;14.75;13.50;;;;;17.76;84.19;101418.97;5071222;27;45889;-71
2021/08/10 04:33:56;;;;;;;;;11.50;10.00;;;;;17.80;83.64;101427.47;5074512;27;45521;-74
2021/08/10 04:36:22;;;;;;;;;14.75;13.25;;;;;17.83;83.72;101435.16;5069591;27;45624;-71
2021/08/10 04:38:47;;;;;;;;;17.00;15.25;;;;;17.85;83.41;101438.47;5070112;27;45483;-69
2021/08/10 04:41:13;;;;;;;;;13.25;12.75;;;;;17.86;83.10;101439.31;5061925;27;45981;-74
2021/08/10 04:43:38;;;;;;;;;14.75;12.50;;;;;17.87;83.22;101436.44;5072859;27;45506;-74
2021/08/10 04:46:03;;;;;;;;;12.75;12.00;;;;;17.89;83.31;101441.63;5069604;27;45591;-71
2021/08/10 04:48:29;;;;;;;;;11.00;11.00;;;;;17.91;82.87;101444.94;5075855;27;45494;-71
2021/08/10 04:50:54;;;;;;;;;10.25;10.25;;;;;17.88;82.86;101453.31;5069539;27;45594;-74
2021/08/10 04:53:19;;;;;;;;;11.50;10.00;;;;;17.89;82.97;101441.63;5077733;27;45485;-74
2021/08/10 04:55:45;;;;;;;;;12.00;11.75;;;;;17.91;82.93;101445.78;5077341;27;47547;-73
2021/08/10 04:58:11;;;;;;;;;12.75;12.50;;;;;17.92;82.85;101444.75;5069014;27;45775;-71
2021/08/10 05:00:36;;;;;;;;;12.50;12.50;;;;;17.91;82.55;101445.78;5056391;27;45454;-71
2021/08/10 05:03:02;;;;;;;;;13.00;10.50;;;;;17.91;82.38;101450.31;5079608;27;45457;-70
2021/08/10 05:05:27;;;;;;;;;10.50;8.75;;;;;17.90;82.42;101448.63;5076551;27;46211;-70
2021/08/10 05:07:52;;;;;;;;;12.25;11.50;;;;;17.89;83.00;101449.66;5074188;27;45675;-70
2021/08/10 05:10:18;;;;;;;;;10.75;10.75;;;;;17.85;83.23;101451.81;5085677;27;46167;-74
2021/08/10 05:12:43;;;;;;;;;11.50;10.25;;;;;17.87;82.96;101454.34;5068755;27;45488;-71
2021/08/10 05:15:09;;;;;;;;;11.25;10.00;;;;;17.90;83.32;101454.78;5069705;27;46378;-71
2021/08/10 05:17:34;;;;;;;;;13.00;10.75;;;;;17.97;83.48;101458.41;5068919;27;49309;-70
2021/08/10 05:20:00;;;;;;;;;11.75;10.75;;;;;18.03;83.04;101451.53;5072263;27;45530;-71
2021/08/10 05:22:26;;;;;;;;;10.25;8.50;;;;;18.08;82.81;101451.00;5067569;27;45630;-69
2021/08/10 05:24:51;;;;;;;;;10.75;9.75;;;;;18.13;82.31;101462.81;5073264;27;46322;-71
2021/08/10 05:27:17;;;;;;;;;9.75;9.50;;;;;18.17;81.95;101452.56;5071081;27;45417;-71
2021/08/10 05:29:42;;;;;;;;;14.25;11.75;;;;;18.17;82.17;101456.06;5068376;27;45809;-75
2021/08/10 05:32:08;;;;;;;;;13.00;10.00;;;;;18.16;82.19;101462.44;5068407;27;45427;-70
2021/08/10 05:34:33;;;;;;;;;12.25;10.00;;;;;18.12;81.82;101455.78;5067533;27;45491;-70
2021/08/10 05:36:59;;;;;;;;;11.50;10.50;;;;;18.12;82.33;101466.47;5063161;27;45610;-72
2021/08/10 05:39:24;;;;;;;;;11.00;8.25;;;;;18.10;82.19;101460.50;5066533;27;45690;-74
2021/08/10 05:41:49;;;;;;;;;10.75;10.75;;;;;18.12;82.43;101454.94;5077959;27;45507;-74
2021/08/10 05:44:16;;;;;;;;;11.75;10.25;;;;;18.11;81.03;101453.28;5084461;27;45479;-71
2021/08/10 05:46:41;;;;;;;;;8.25;8.25;;;;;18.09;81.74;101458.81;5071124;27;45589;-75
2021/08/10 05:49:08;;;;;;;;;10.50;8.50;;;;;18.09;81.67;101461.50;5066388;27;45512;-74
2021/08/10 05:51:33;;;;;;;;;9.75;8.00;;;;;18.10;81.40;101457.81;5078362;27;45643;-71
2021/08/10 05:53:59;;;;;;;;;10.00;9.00;;;;;18.11;83.49;101454.13;5069595;27;46286;-71
2021/08/10 05:56:24;;;;;;;;;11.00;6.00;;;;;18.07;82.16;101458.16;5077610;27;45534;-69
2021/08/10 05:58:50;;;;;;;;;9.00;9.00;;;;;18.04;83.49;101463.88;5069882;27;45570;-75
2021/08/10 06:01:16;;;;;;;;;10.00;9.25;;;;;18.06;83.13;101461.84;5068552;27;45708;-69
2021/08/10 06:03:41;;;;;;;;;8.75;8.75;;;;;18.11;83.28;101454.13;5073471;27;45562;-69
2021/08/10 06:06:06;;;;;;;;;10.00;9.50;;;;;18.18;82.00;101455.06;5072461;27;45665;-69
2021/08/10 06:08:32;;;;;;;;;10.50;7.50;;;;;18.18;82.04;101454.25;5076657;27;45502;-74
2021/08/10 06:10:57;;;;;;;;;8.50;7.50;;;;;18.17;81.07;101458.72;5069973;27;45467;-73
2021/08/10 06:13:22;;;;;;;;;8.75;8.00;;;;;18.19;82.30;101466.59;5050304;28;48156;-74
2021/08/10 06:15:48;;;;;;;;;8.25;7.25;;;;;18.23;81.35;101467.91;5077316;27;45450;-74
2021/08/10 06:18:13;;;;;;;;;8.00;8.00;;;;;18.21;82.46;101460.03;5068088;27;45524;-74
2021/08/10 06:20:38;;;;;;;;;8.75;8.50;;;;;18.24;82.55;101462.34;5069588;27;45615;-74
2021/08/10 06:23:05;;;;;;;;;12.25;9.25;;;;;18.27;81.80;101462.00;5070685;27;45444;-72
2021/08/10 06:25:30;;;;;;;;;13.50;9.75;;;;;18.28;82.11;101462.81;5070134;27;46166;-74
2021/08/10 06:27:56;;;;;;;;;10.25;9.75;;;;;18.32;81.95;101463.28;5071715;27;45450;-69
2021/08/10 06:30:21;;;;;;;;;9.00;8.00;;;;;18.33;81.11;101462.28;5071511;27;45537;-74
2021/08/10 06:32:47;;;;;;;;;9.25;8.00;;;;;18.36;81.94;101468.09;5068553;27;46240;-74
2021/08/10 06:35:12;;;;;;;;;9.75;8.25;;;;;18.40;81.91;101473.91;5057772;27;45535;-71
2021/08/10 06:37:38;;;;;;;;;10.00;9.25;;;;;18.41;81.50;101462.19;5068412;28;45578;-74
2021/08/10 06:40:04;;;;;;;;;11.75;9.50;;;;;18.44;80.61;101461.81;5063818;27;45502;-72
2021/08/10 06:42:30;;;;;;;;;9.75;9.25;;;;;18.41;79.94;101463.00;5067035;28;45585;-75
2021/08/10 06:44:55;;;;;;;;;9.75;9.75;;;;;18.46;81.11;101468.66;5070509;28;45532;-69
2021/08/10 06:47:20;;;;;;;;;11.00;10.25;;;;;18.52;80.12;101456.41;5070336;28;47461;-72
2021/08/10 06:49:46;;;;;;;;;9.25;9.00;;;;;18.57;80.27;101469.19;5068648;28;45615;-71
2021/08/10 06:52:11;;;;;;;;;14.50;12.75;;;;;18.60;80.32;101463.50;5069962;28;46387;-74
2021/08/10 06:54:38;;;;;;;;;15.50;13.75;;;;;18.63;80.78;101466.63;5068329;27;45638;-74
2021/08/10 06:57:07;;;;;;;;;13.25;12.25;;;;;18.65;80.23;101461.94;5071255;27;45633;-72
2021/08/10 06:59:33;;;;;;;;;9.50;9.50;;;;;18.68;80.02;101456.19;5068687;27;45818;-72
2021/08/10 07:01:59;;;;;;;;;12.00;12.00;;;;;18.76;80.78;101457.97;5069802;28;45499;-74
2021/08/10 07:04:24;;;;;;;;;12.25;10.00;;;;;18.94;80.80;101454.94;5070431;27;45412;-74
2021/08/10 07:06:50;;;;;;;;;8.25;8.00;;;;;19.12;82.41;101466.06;5068002;27;45514;-74
2021/08/10 07:09:16;;;;;;;;;9.00;7.75;;;;;19.36;83.38;101469.41;5066928;27;45599;-74
2021/08/10 07:11:42;;;;;;;;;11.00;8.50;;;;;19.60;78.62;101465.53;5045617;28;47343;-74
2021/08/10 07:14:11;;;;;;;;;10.25;9.50;;;;;19.81;78.52;101474.66;5070927;27;45534;-76
2021/08/10 07:16:38;;;;;;;;;11.50;8.00;;;;;20.07;78.13;101466.00;5071226;28;45676;-74
2021/08/10 07:19:04;;;;;;;;;8.00;7.00;;;;;20.36;77.27;101464.97;5071266;28;45592;-74
2021/08/10 07:21:29;;;;;;;;;8.00;8.00;;;;;20.64;75.11;101466.81;5068875;27;47485;-75
2021/08/10 07:23:54;;;;;;;;;10.75;9.50;;;;;20.96;75.48;101466.16;5070962;27;45440;-71
2021/08/10 07:26:20;;;;;;;;;9.25;8.50;;;;;21.42;74.19;101470.06;5070315;27;45747;-76
2021/08/10 07:28:45;;;;;;;;;10.75;9.00;;;;;21.84;73.27;101473.44;5071914;27;45640;-74
2021/08/10 07:31:10;;;;;;;;;11.50;9.00;;;;;22.16;71.43;101474.47;5070393;28;45555;-74
2021/08/10 07:33:36;;;;;;;;;11.50;8.00;;;;;22.29;69.89;101474.47;5068297;27;45586;-69
2021/08/10 07:36:02;;;;;;;;;12.25;9.25;;;;;22.38;70.68;101471.56;5069365;27;45464;-71
2021/08/10 07:38:28;;;;;;;;;11.00;10.75;;;;;23.16;69.20;101474.25;5069186;27;45710;-73
2021/08/10 07:40:53;;;;;;;;;10.75;9.00;;;;;23.52;66.62;101472.81;5069318;28;46500;-73
2021/08/10 07:43:18;;;;;;;;;12.75;9.00;;;;;23.36;66.76;101471.44;5068262;27;45559;-74
2021/08/10 07:45:44;;;;;;;;;8.00;8.00;;;;;23.14;67.38;101474.44;5055543;27;48612;-71
2021/08/10 07:48:09;;;;;;;;;10.25;8.25;;;;;22.92;65.77;101482.00;5080498;27;45582;-76
2021/08/10 07:50:34;;;;;;;;;8.00;8.00;;;;;22.75;68.23;101484.34;5077380;27;46304;-71
2021/08/10 07:53:00;;;;;;;;;9.00;9.00;;;;;22.66;68.67;101482.91;5073276;27;45499;-73
2021/08/10 07:55:25;;;;;;;;;8.50;8.25;;;;;22.60;68.75;101488.31;5075389;27;45552;-74
2021/08/10 07:57:50;;;;;;;;;7.00;7.00;;;;;22.56;68.81;101487.09;5060551;27;45536;-71
2021/08/10 08:00:16;;;;;;;;;11.75;9.00;;;;;22.57;68.49;101486.03;5068437;27;45503;-75
2021/08/10 08:02:41;;;;;;;;;9.00;7.00;;;;;22.61;68.00;101489.97;5069808;27;45401;-71
2021/08/10 08:05:07;;;;;;;;;11.00;8.00;;;;;22.46;65.97;101482.94;5071736;27;45540;-75
2021/08/10 08:07:33;;;;;;;;;10.00;8.25;;;;;22.39;67.42;101489.38;5062931;28;45671;-71
2021/08/10 08:09:59;;;;;;;;;8.00;8.00;;;;;22.36;67.85;101484.44;5070943;27;46299;-74
2021/08/10 08:12:24;;;;;;;;;7.75;4.00;;;;;22.41;67.79;101485.44;5057697;27;45409;-72
2021/08/10 08:14:49;;;;;;;;;11.25;9.75;;;;;22.65;68.50;101488.50;5067950;27;45560;-69
2021/08/10 08:17:15;;;;;;;;;9.75;7.00;;;;;22.96;66.17;101483.22;5073939;27;45502;-74
2021/08/10 08:19:40;;;;;;;;;9.50;9.00;;;;;23.10;66.46;101484.03;5071072;27;46344;-72
2021/08/10 08:22:06;;;;;;;;;9.00;8.00;;;;;23.17;66.55;101484.81;5069256;27;45504;-72
2021/08/10 08:24:32;;;;;;;;;9.25;7.00;;;;;23.32;66.52;101479.16;5070727;27;45470;-74
2021/08/10 08:26:57;;;;;;;;;15.00;10.00;;;;;24.11;66.64;101482.38;5078936;27;45580;-75
2021/08/10 08:29:23;;;;;;;;;7.25;7.25;;;;;25.19;63.42;101485.59;5081227;27;46064;-75
2021/08/10 08:31:48;;;;;;;;;8.50;8.50;;;;;25.63;62.06;101484.34;5065779;27;45552;-75
2021/08/10 08:34:14;;;;;;;;;7.25;7.00;;;;;25.63;60.14;101480.81;5048927;28;45803;-68
2021/08/10 08:36:42;;;;;;;;;7.75;6.50;;;;;25.81;59.88;101483.44;5076764;27;45555;-75
2021/08/10 08:39:07;;;;;;;;;5.75;5.00;;;;;26.14;58.78;101482.94;5068873;27;45848;-72
2021/08/10 08:41:33;;;;;;;;;5.50;5.25;;;;;26.03;56.75;101486.44;5069087;27;45467;-71
2021/08/10 08:43:58;;;;;;;;;8.00;8.00;;;;;25.82;58.34;101481.56;5071680;27;45377;-71
2021/08/10 08:46:24;;;;;;;;;5.00;5.00;;;;;25.65;57.25;101478.72;5069688;27;45514;-72
2021/08/10 08:48:51;;;;;;;;;5.75;5.75;;;;;25.49;57.58;101485.59;5045691;28;47228;-72
2021/08/10 08:51:23;;;;;;;;;7.75;7.75;;;;;25.24;58.35;101481.16;5075533;27;45520;-75
2021/08/10 08:53:51;;;;;;;;;6.75;6.50;;;;;24.84;57.81;101478.91;5082810;27;45492;-75
2021/08/10 08:56:19;;;;;;;;;8.50;6.50;;;;;24.49;59.68;101477.88;5067784;27;45643;-69
2021/08/10 08:58:44;;;;;;;;;9.50;8.00;;;;;24.37;60.33;101480.44;5071970;27;45533;-69
2021/08/10 09:01:12;;;;;;;;;10.75;9.00;;;;;25.19;60.44;101472.06;5071092;27;45449;-71
2021/08/10 09:03:38;;;;;;;;;6.00;5.00;;;;;25.64;56.78;101475.19;5066341;27;45501;-69
2021/08/10 09:06:03;;;;;;;;;6.75;5.75;;;;;25.64;56.41;101471.63;5070432;27;45484;-74
2021/08/10 09:08:32;;;;;;;;;5.25;2.75;;;;;25.49;55.28;101467.50;5074783;27;46625;-75
2021/08/10 09:11:00;;;;;;;;;8.00;5.25;;;;;25.21;56.26;101467.25;5071379;27;45616;-72
2021/08/10 09:13:25;;;;;;;;;7.25;6.00;;;;;25.00;58.07;101465.84;5069007;27;45544;-71
2021/08/10 09:15:51;;;;;;;;;6.00;5.75;;;;;25.01;58.43;101472.91;5068027;27;45461;-73
2021/08/10 09:18:20;;;;;;;;;7.00;7.00;;;;;25.05;57.02;101468.72;5072563;27;45458;-74
2021/08/10 09:21:09;;;;;;;;;8.00;6.00;;;;;25.05;55.91;101474.13;5053931;27;45512;-71
2021/08/10 09:23:43;;;;;;;;;6.50;6.00;;;;;24.87;58.02;101480.34;5067534;27;45473;-69
2021/08/10 09:26:11;;;;;;;;;7.25;7.25;;;;;24.87;58.70;101488.44;5068109;27;45510;-74
2021/08/10 09:28:37;;;;;;;;;6.00;4.75;;;;;25.03;56.77;101485.16;5075580;27;46254;-75
2021/08/10 09:31:41;;;;;;;;;6.00;6.00;;;;;25.48;57.33;101479.34;5053331;28;45575;-74
2021/08/10 09:34:17;;;;;;;;;8.00;7.00;;;;;26.00;57.87;101475.25;5072301;27;45446;-72
2021/08/10 09:36:43;;;;;;;;;7.75;6.00;;;;;26.21;55.98;101471.97;5063097;27;45454;-74
2021/08/10 09:39:09;;;;;;;;;7.25;5.50;;;;;26.33;55.55;101477.38;5068465;27;45567;-74
2021/08/10 09:41:35;;;;;;;;;6.75;6.75;;;;;26.59;55.49;101462.53;5072117;27;45507;-75
2021/08/10 09:44:17;;;;;;;;;9.25;5.50;;;;;26.90;54.82;101463.97;5071192;27;45441;-74
2021/08/10 09:46:50;;;;;;;;;6.50;6.00;;;;;27.60;56.32;101457.44;5074746;27;45651;-75
2021/08/10 09:49:18;;;;;;;;;6.25;5.00;;;;;28.50;54.25;101468.38;5070623;27;45667;-75
2021/08/10 09:51:47;;;;;;;;;6.75;5.00;;;;;29.26;52.31;101467.66;5068759;27;45538;-72
2021/08/10 09:54:16;;;;;;;;;3.00;3.00;;;;;29.76;51.63;101461.88;5077635;27;45582;-69
2021/08/10 09:56:51;;;;;;;;;4.50;4.50;;;;;30.31;50.40;101461.72;5058456;27;45469;-74
2021/08/10 09:59:24;;;;;;;;;3.50;3.50;;;;;30.23;49.32;101463.81;5058335;27;46296;-75
2021/08/10 10:01:56;;;;;;;;;4.00;4.00;;;;;30.16;44.94;101449.59;5089433;27;45459;-75
2021/08/10 10:04:30;;;;;;;;;6.00;5.00;;;;;30.47;47.98;101460.72;5068802;27;45547;-74
2021/08/10 10:06:58;;;;;;;;;3.75;3.00;;;;;30.92;48.65;101458.47;5070150;27;45421;-70
2021/08/10 10:09:25;;;;;;;;;6.75;4.75;;;;;31.38;44.99;101461.28;5064038;27;45494;-70
2021/08/10 10:11:53;;;;;;;;;3.25;3.25;;;;;31.27;46.19;101469.44;5075182;27;45508;-75
2021/08/10 10:14:21;;;;;;;;;5.00;5.00;;;;;31.48;44.83;101461.34;5068588;27;45472;-71
2021/08/10 10:16:48;;;;;;;;;4.00;3.50;;;;;31.55;43.62;101464.59;5061933;27;45746;-72
2021/08/10 10:19:16;;;;;;;;;3.00;3.00;;;;;31.40;39.73;101459.94;5058023;27;48287;-72
2021/08/10 10:21:59;;;;;;;;;5.50;4.25;;;;;31.26;38.11;101461.56;5068743;27;45570;-70
2021/08/10 10:24:26;;;;;;;;;3.50;3.50;;;;;31.34;42.50;101461.00;5066279;27;45595;-74
2021/08/10 10:27:01;;;;;;;;;3.00;3.00;;;;;31.76;44.56;101454.50;5069138;27;45629;-75
2021/08/10 10:29:27;;;;;;;;;2.50;2.50;;;;;32.22;44.11;101459.94;5065951;27;47131;-75
2021/08/10 10:31:53;;;;;;;;;4.25;3.00;;;;;32.68;43.29;101454.28;5071432;27;45471;-72
2021/08/10 10:34:19;;;;;;;;;5.00;3.00;;;;;33.13;41.40;101454.34;5069770;27;45607;-72
2021/08/10 10:36:46;;;;;;;;;2.00;2.00;;;;;33.25;40.61;101457.56;5066444;27;45503;-71
2021/08/10 10:39:14;;;;;;;;;2.00;2.00;;;;;33.31;41.24;101458.31;5065821;27;47560;-72
2021/08/10 10:41:41;;;;;;;;;3.50;3.00;;;;;33.14;40.11;101445.06;5082288;27;45510;-75
2021/08/10 10:44:07;;;;;;;;;2.25;2.25;;;;;33.13;37.08;101449.69;5067827;27;45537;-71
2021/08/10 10:46:35;;;;;;;;;3.25;3.25;;;;;32.56;37.98;101453.81;5067658;27;45679;-75
2021/08/10 10:49:05;;;;;;;;;2.50;2.50;;;;;32.37;40.93;101448.13;5069577;27;45594;-71
2021/08/10 10:51:33;;;;;;;;;4.00;1.25;;;;;32.89;39.35;101443.25;5050743;27;45647;-71
2021/08/10 10:54:26;;;;;;;;;3.00;3.00;;;;;33.35;33.98;101440.22;5067480;27;45505;-69
2021/08/10 10:57:03;;;;;;;;;2.50;2.50;;;;;33.43;36.61;101447.81;5064731;27;45586;-72
2021/08/10 10:59:31;;;;;;;;;3.25;3.25;;;;;33.42;38.33;101438.00;5065893;27;46693;-71
2021/08/10 11:02:16;;;;;;;;;1.75;1.75;;;;;33.78;41.25;101443.16;5084208;27;45472;-75
2021/08/10 11:05:08;;;;;;;;;3.00;3.00;;;;;34.23;36.50;101441.09;5069346;27;45487;-75
2021/08/10 11:07:39;;;;;;;;;3.00;3.00;;;;;33.73;37.68;101437.75;5064458;27;45945;-71
2021/08/10 11:10:11;;;;;;;;;3.00;2.00;;;;;33.50;38.82;101431.88;5069892;27;46574;-74
2021/08/10 11:12:47;;;;;;;;;3.00;3.00;;;;;33.42;39.11;101435.25;5067692;28;45729;-75
2021/08/10 11:15:21;;;;;;;;;2.50;2.50;;;;;33.23;39.11;101435.09;5044040;28;45541;-72
2021/08/10 11:18:08;;;;;;;;;2.00;2.00;;;;;32.95;38.60;101431.16;5072831;27;45608;-74
2021/08/10 11:21:15;;;;;;;;;3.25;2.25;;;;;32.62;34.52;101435.44;5063930;27;45511;-75
2021/08/10 11:23:40;;;;;;;;;3.00;3.00;;;;;31.79;37.55;101431.25;5075376;27;45491;-75
2021/08/10 11:26:05;;;;;;;;;6.25;4.25;;;;;31.21;40.23;101436.97;5076899;27;45866;-75